Main page
METAR-TAF:

METAR-TAF

Airports :

Albion Municipal Airport

Albion, Nebraska, United States

latitude: 41-43-42N, longitude: 098-03-20W, elevation: 1807 ft

Current weather observation

The report was made 23 minutes ago, at 23:55 UTC
Wind 14 mph from the East/Northeast with gusts up to 21 mph
Temperature 79°F
Humidity 79%
Pressure 30.07 in. Hg
Visibility: 5 miles
Scattered clouds at a height of 2800 ft
Overcast at a height of 3800 ft
haze

METAR: KBVN 302355Z AUTO 06012G18KT 5SM HZ SCT028 OVC038 26/22 A3007 RMK AO2 T02610217 10280 20246

Time: 19:18 (00:18 UTC)


TAF: missing

Weather observations and forecasts of more than 4000 airports (METAR and TAF reports).

The available stations are represented by yellow and red dots on the map.

Hover mouse over dot to see the name of the station.

Then click to see weather observations and forecasts.

To change the map : click on the green buttons with a black cross to zoom in, on the green button with a dash to zoom out, or on the green arrows for adjacent maps.


METAR-TAF: